createdAt,value
2023-01-29T00:00:10.618Z,5.90
2023-01-29T00:06:55.877Z,5.55
2023-01-29T00:13:38.249Z,5.47
2023-01-29T00:20:20.613Z,6.00
2023-01-29T00:27:03.616Z,5.93
2023-01-29T00:33:45.966Z,6.35
2023-01-29T00:40:28.413Z,6.68
2023-01-29T00:47:29.405Z,6.20
2023-01-29T00:54:12.192Z,6.13
2023-01-29T01:00:55.983Z,5.63
2023-01-29T01:07:38.371Z,5.95
2023-01-29T01:14:21.350Z,6.30
2023-01-29T01:21:04.055Z,6.20
2023-01-29T01:27:46.825Z,6.50
2023-01-29T01:34:29.634Z,5.93
2023-01-29T01:41:20.687Z,6.75
2023-01-29T01:48:17.264Z,6.13
2023-01-29T01:55:00.707Z,5.80
2023-01-29T02:01:50.013Z,5.30
2023-01-29T02:09:01.112Z,6.03
2023-01-29T02:15:46.850Z,6.13
2023-01-29T02:23:10.500Z,6.53
2023-01-29T02:30:17.119Z,6.35
2023-01-29T02:36:59.595Z,6.53
2023-01-29T02:43:51.876Z,6.05
2023-01-29T02:51:00.596Z,5.70
2023-01-29T02:57:46.324Z,6.20
2023-01-29T03:04:36.372Z,5.80
2023-01-29T03:11:18.958Z,5.88
2023-01-29T03:18:33.172Z,5.50
2023-01-29T03:25:39.556Z,5.60
2023-01-29T03:32:24.672Z,5.63
2023-01-29T03:39:09.566Z,5.25
2023-01-29T03:45:55.083Z,6.20
2023-01-29T03:52:40.883Z,7.18
2023-01-29T04:08:16.770Z,6.40
2023-01-29T04:15:02.108Z,6.65
2023-01-29T04:21:48.515Z,6.18
2023-01-29T04:28:50.204Z,6.35
2023-01-29T04:35:53.160Z,6.25
2023-01-29T04:43:01.505Z,6.55
2023-01-29T04:50:03.466Z,6.38
2023-01-29T04:57:01.866Z,6.00
2023-01-29T05:03:48.042Z,5.72
2023-01-29T05:10:30.828Z,7.10
2023-01-29T05:17:17.768Z,6.10
2023-01-29T05:24:26.739Z,6.03
2023-01-29T05:31:09.554Z,6.35
2023-01-29T05:37:51.924Z,6.50
2023-01-29T05:44:49.488Z,6.55
2023-01-29T05:51:32.188Z,6.30
2023-01-29T05:58:15.085Z,5.88
2023-01-29T06:04:57.573Z,6.25
2023-01-29T06:11:40.067Z,7.20
2023-01-29T06:18:22.460Z,7.88
2023-01-29T06:25:05.266Z,6.80
2023-01-29T06:31:47.593Z,7.72
2023-01-29T06:38:30.959Z,6.93
2023-01-29T06:45:13.256Z,6.30
2023-01-29T06:51:55.588Z,5.90
2023-01-29T06:58:38.391Z,6.57
2023-01-29T07:05:20.647Z,6.45
2023-01-29T07:12:04.705Z,6.07
2023-01-29T07:18:47.020Z,6.95
2023-01-29T07:25:30.393Z,6.22
2023-01-29T07:32:12.767Z,6.93
2023-01-29T07:38:55.273Z,7.85
2023-01-29T07:45:39.172Z,6.53
2023-01-29T07:52:22.462Z,6.57
2023-01-29T07:59:04.844Z,7.00
2023-01-29T08:05:47.823Z,7.20
2023-01-29T08:12:30.185Z,6.60
2023-01-29T08:19:12.523Z,7.07
2023-01-29T08:25:55.001Z,7.85
2023-01-29T08:32:37.462Z,6.57
2023-01-29T08:39:19.890Z,6.95
2023-01-29T08:46:03.853Z,6.50
2023-01-29T08:52:46.751Z,7.65
2023-01-29T08:59:29.036Z,7.40
2023-01-29T09:06:13.350Z,6.60
2023-01-29T09:12:55.815Z,6.75
2023-01-29T09:19:38.117Z,7.38
2023-01-29T09:26:20.466Z,6.82
2023-01-29T09:33:03.358Z,7.38
2023-01-29T09:39:46.065Z,7.07
2023-01-29T09:46:41.852Z,6.95
2023-01-29T09:53:53.841Z,6.88
2023-01-29T10:01:26.571Z,6.70
2023-01-29T10:08:25.467Z,7.15
2023-01-29T10:15:32.417Z,6.85
2023-01-29T10:22:53.063Z,7.13
2023-01-29T10:29:35.576Z,7.75
2023-01-29T10:36:26.555Z,8.30
2023-01-29T10:43:17.291Z,7.88
2023-01-29T10:50:16.345Z,7.47
2023-01-29T10:57:23.248Z,8.05
2023-01-29T11:04:31.490Z,7.82
2023-01-29T11:11:18.814Z,7.97
2023-01-29T11:18:13.356Z,8.30
2023-01-29T11:25:19.265Z,8.60
2023-01-29T11:32:06.044Z,8.82
2023-01-29T11:39:10.424Z,8.88
2023-01-29T11:46:05.566Z,8.10
2023-01-29T11:52:48.900Z,8.23
2023-01-29T11:59:50.034Z,8.25
2023-01-29T12:06:41.246Z,8.13
2023-01-29T12:13:28.145Z,9.65
2023-01-29T12:20:16.344Z,8.65
2023-01-29T12:27:07.752Z,8.40
2023-01-29T12:34:57.423Z,9.10
2023-01-29T12:41:46.268Z,9.73
2023-01-29T12:48:39.488Z,10.20
2023-01-29T12:55:32.591Z,9.15
2023-01-29T13:02:39.475Z,9.18
2023-01-29T13:09:26.927Z,9.82
2023-01-29T13:16:14.016Z,9.85
2023-01-29T13:23:03.228Z,9.98
2023-01-29T13:30:23.519Z,10.00
2023-01-29T13:37:46.186Z,9.63
2023-01-29T13:44:34.505Z,9.77
2023-01-29T13:51:22.903Z,9.38
2023-01-29T13:58:05.852Z,8.68
2023-01-29T14:04:48.218Z,9.43
2023-01-29T14:11:35.875Z,9.32
2023-01-29T14:18:21.069Z,9.40
2023-01-29T14:25:05.692Z,9.65
2023-01-29T14:32:05.805Z,9.80
2023-01-29T14:38:51.882Z,10.10
2023-01-29T14:45:38.992Z,10.00
2023-01-29T14:52:32.977Z,10.48
2023-01-29T14:59:29.244Z,10.50
2023-01-29T15:06:18.912Z,10.35
2023-01-29T15:13:08.015Z,10.82
2023-01-29T15:19:50.766Z,10.75
2023-01-29T15:26:33.602Z,10.75
2023-01-29T15:33:16.331Z,11.35
2023-01-29T15:40:00.151Z,10.80
2023-01-29T15:46:48.126Z,11.13
2023-01-29T15:53:36.310Z,10.50
2023-01-29T16:00:24.786Z,10.07
2023-01-29T16:07:07.114Z,10.55
2023-01-29T16:14:08.764Z,10.35
2023-01-29T16:20:54.435Z,11.30
2023-01-29T16:27:36.941Z,9.40
2023-01-29T16:34:41.995Z,10.00
2023-01-29T16:41:24.277Z,12.13
2023-01-29T16:48:32.347Z,12.05
2023-01-29T16:55:22.729Z,10.45
2023-01-29T17:02:21.707Z,11.50
2023-01-29T17:17:56.653Z,10.52
2023-01-29T17:24:38.914Z,10.93
2023-01-29T17:31:21.277Z,10.50
2023-01-29T17:38:04.204Z,10.93
2023-01-29T17:44:47.344Z,10.30
2023-01-29T17:51:29.640Z,11.15
2023-01-29T17:58:23.713Z,10.55
2023-01-29T18:05:06.402Z,9.00
2023-01-29T18:11:49.692Z,9.63
2023-01-29T18:18:32.147Z,9.73
2023-01-29T18:25:15.209Z,9.88
2023-01-29T18:31:57.800Z,10.10
2023-01-29T18:38:40.119Z,9.77
2023-01-29T18:45:22.417Z,10.73
2023-01-29T18:52:06.091Z,10.55
2023-01-29T18:58:52.820Z,10.38
2023-01-29T19:05:38.149Z,10.90
2023-01-29T19:12:22.184Z,10.25
2023-01-29T19:19:04.582Z,10.43
2023-01-29T19:25:47.542Z,11.25
2023-01-29T19:32:30.058Z,12.02
2023-01-29T19:39:12.552Z,11.52
2023-01-29T19:45:58.838Z,12.35
2023-01-29T19:52:51.070Z,12.30
2023-01-29T19:59:33.907Z,12.40
2023-01-29T20:06:19.274Z,13.43
2023-01-29T20:13:01.659Z,12.85
2023-01-29T20:19:45.459Z,17.10
2023-01-29T20:26:27.767Z,14.68
2023-01-29T20:33:11.015Z,14.60
2023-01-29T20:39:53.380Z,16.35
2023-01-29T20:46:35.709Z,18.15
2023-01-29T20:53:18.032Z,18.05
2023-01-29T21:00:00.663Z,16.52
2023-01-29T21:06:42.930Z,17.73
2023-01-29T21:13:25.207Z,17.50
2023-01-29T21:20:08.269Z,16.88
2023-01-29T21:26:50.638Z,16.30
2023-01-29T21:33:34.286Z,16.20
2023-01-29T21:40:17.169Z,16.48
2023-01-29T21:47:00.047Z,20.48
2023-01-29T21:53:42.380Z,18.73
2023-01-29T22:00:24.804Z,16.45
2023-01-29T22:07:07.275Z,16.55
2023-01-29T22:13:49.854Z,15.70
2023-01-29T22:20:32.186Z,16.13
2023-01-29T22:27:14.921Z,16.08
2023-01-29T22:33:57.209Z,16.88
2023-01-29T22:40:39.622Z,14.65
2023-01-29T22:47:21.923Z,16.00
2023-01-29T22:54:04.300Z,15.27
2023-01-29T23:00:50.874Z,17.05
2023-01-29T23:07:33.723Z,16.77
2023-01-29T23:14:16.076Z,14.88
2023-01-29T23:20:58.403Z,16.27
2023-01-29T23:27:40.897Z,15.75
2023-01-29T23:34:23.400Z,15.25
2023-01-29T23:41:05.944Z,14.15
2023-01-29T23:47:48.193Z,13.85
2023-01-29T23:54:30.555Z,16.80
